Lustre, Montana
Current Conditions -  °F | °C
As of 1:53 AM on Friday 31 Oct 2014 (Local Time) from KOLF Reporting Station
Overcast Overcast  
Wind Chill: 28°   Ceiling: 1400
Heat Index: 37°   Visibility: 10mi
Dew Point: 30°   Wind: 14mph
Humidity: 76%   Direction: 130°SE
Pressure: 30.36"   Gusts: NA
Location:  48.2842°N, 105.947°W
Report Text: KOLF 310753Z AUTO 13012KT 10SM OVC014 03/M01 A3036 RMK AO2 SLP300 T00281011
Loading
Personal Weather Stations






























Interactive Weather Map
Tropical Storm Tracking
New forecast layout! Learn more

10-Day Weather Forecast

Advertisements
Track Severe Weather on mobile